Impacts TAF Board
For situational awareness. Not to be used for flight planning purposes.
IDs:

KDEN - Denver Intl, CO, US

Issued at 0305 UTC 06 Dec 2019
Updated at 0338 UTC 06 Dec 2019
Potential Impact None Slight Moderate High
Time<<06/16Z 06/17Z 06/18Z 06/19Z 06/20Z 06/21Z 06/22Z 06/23Z 07/00Z 07/01Z 07/02Z 07/03Z 07/04Z>>
Type PRVL PRVL PRVL PRVL PRVL PRVL PRVL PRVL PRVL PRVL PRVL PRVL PRVL
VIS >6 >6 >6 >6 >6 >6 >6 >6 >6 >6 >6 >6 >6
CIG -- -- -- -- -- -- -- -- -- -- -- -- --
Cover SCT SCT SCT SCT SCT SCT SCT SCT SCT FEW FEW FEW FEW
FltCat VFR VFR VFR VFR VFR VFR VFR VFR VFR VFR VFR VFR VFR
WX -- -- -- -- -- -- -- -- -- -- -- -- --
WDir 240 240 240 240 240 240 240 240 240 200 200 200 200
WSpd 8 8 8 8 8 8 8 8 8 8 8 8 8
WGst -- -- -- -- -- -- -- -- -- -- -- -- --
Raw TAF
KDEN 060305Z 0603/0706 24005KT P6SM VCFG FEW007 SCT035 OVC050
  FM060400 VRB04KT 4SM BR VCSH SCT005 OVC008
  FM060500 22005KT P6SM VCFG SCT012 BKN030
  FM061000 21010KT P6SM BKN200
  FM061500 24008KT P6SM SCT120 SCT200
  FM070100 20008KT P6SM FEW200


METAR Board
Radar Display
Forecast Discussion
For situational awareness. Not to be used for flight planning purposes.